sensor_id;sensor_type;location;lat;lon;timestamp;P1;durP1;ratioP1;P2;durP2;ratioP2
23362;SDS011;11853;48.080;11.960;2024-02-26T00:02:02;9.95;;;8.43;;
23362;SDS011;11853;48.080;11.960;2024-02-26T00:04:28;9.52;;;8.48;;
23362;SDS011;11853;48.080;11.960;2024-02-26T00:06:53;10.00;;;8.45;;
23362;SDS011;11853;48.080;11.960;2024-02-26T00:09:20;10.95;;;9.18;;
23362;SDS011;11853;48.080;11.960;2024-02-26T00:11:45;11.20;;;9.15;;
23362;SDS011;11853;48.080;11.960;2024-02-26T00:14:11;10.63;;;9.35;;
23362;SDS011;11853;48.080;11.960;2024-02-26T00:16:39;9.52;;;8.52;;
23362;SDS011;11853;48.080;11.960;2024-02-26T00:19:10;11.38;;;8.82;;
23362;SDS011;11853;48.080;11.960;2024-02-26T00:21:39;9.32;;;8.43;;
23362;SDS011;11853;48.080;11.960;2024-02-26T00:24:06;10.38;;;8.63;;
23362;SDS011;11853;48.080;11.960;2024-02-26T00:26:31;8.75;;;7.85;;
23362;SDS011;11853;48.080;11.960;2024-02-26T00:28:57;9.30;;;8.20;;
23362;SDS011;11853;48.080;11.960;2024-02-26T00:31:23;8.75;;;7.85;;
23362;SDS011;11853;48.080;11.960;2024-02-26T00:33:48;9.82;;;7.90;;
23362;SDS011;11853;48.080;11.960;2024-02-26T00:36:14;10.02;;;7.65;;
23362;SDS011;11853;48.080;11.960;2024-02-26T00:38:40;8.60;;;7.43;;
23362;SDS011;11853;48.080;11.960;2024-02-26T00:41:06;9.45;;;7.63;;
23362;SDS011;11853;48.080;11.960;2024-02-26T00:43:31;9.73;;;8.07;;
23362;SDS011;11853;48.080;11.960;2024-02-26T00:45:57;10.18;;;8.60;;
23362;SDS011;11853;48.080;11.960;2024-02-26T00:48:22;8.00;;;7.20;;
23362;SDS011;11853;48.080;11.960;2024-02-26T00:50:50;9.25;;;7.53;;
23362;SDS011;11853;48.080;11.960;2024-02-26T00:53:16;7.85;;;6.68;;
23362;SDS011;11853;48.080;11.960;2024-02-26T00:55:42;8.93;;;7.60;;
23362;SDS011;11853;48.080;11.960;2024-02-26T00:58:08;7.85;;;7.03;;
23362;SDS011;11853;48.080;11.960;2024-02-26T01:00:34;9.63;;;7.07;;
23362;SDS011;11853;48.080;11.960;2024-02-26T01:03:00;7.70;;;6.57;;
23362;SDS011;11853;48.080;11.960;2024-02-26T01:05:25;8.10;;;6.75;;
23362;SDS011;11853;48.080;11.960;2024-02-26T01:07:51;8.73;;;7.32;;
23362;SDS011;11853;48.080;11.960;2024-02-26T01:10:17;7.55;;;6.57;;
23362;SDS011;11853;48.080;11.960;2024-02-26T01:12:42;7.47;;;6.68;;
23362;SDS011;11853;48.080;11.960;2024-02-26T01:15:08;8.48;;;7.10;;
23362;SDS011;11853;48.080;11.960;2024-02-26T01:17:34;7.72;;;6.57;;
23362;SDS011;11853;48.080;11.960;2024-02-26T01:19:59;7.93;;;6.95;;
23362;SDS011;11853;48.080;11.960;2024-02-26T01:22:25;8.45;;;7.22;;
23362;SDS011;11853;48.080;11.960;2024-02-26T01:24:51;7.63;;;6.07;;
23362;SDS011;11853;48.080;11.960;2024-02-26T01:27:16;7.28;;;6.28;;
23362;SDS011;11853;48.080;11.960;2024-02-26T01:29:42;6.72;;;5.95;;
23362;SDS011;11853;48.080;11.960;2024-02-26T01:32:08;7.70;;;6.22;;
23362;SDS011;11853;48.080;11.960;2024-02-26T01:34:33;7.70;;;6.60;;
23362;SDS011;11853;48.080;11.960;2024-02-26T01:36:59;7.00;;;6.28;;
23362;SDS011;11853;48.080;11.960;2024-02-26T01:39:26;7.18;;;6.40;;
23362;SDS011;11853;48.080;11.960;2024-02-26T01:41:52;10.40;;;6.60;;
23362;SDS011;11853;48.080;11.960;2024-02-26T01:44:18;7.28;;;5.75;;
23362;SDS011;11853;48.080;11.960;2024-02-26T01:46:44;7.55;;;5.63;;
23362;SDS011;11853;48.080;11.960;2024-02-26T01:49:11;6.22;;;5.63;;
23362;SDS011;11853;48.080;11.960;2024-02-26T01:51:38;6.70;;;6.00;;
23362;SDS011;11853;48.080;11.960;2024-02-26T01:54:07;6.15;;;5.55;;
23362;SDS011;11853;48.080;11.960;2024-02-26T01:56:33;7.18;;;6.00;;
23362;SDS011;11853;48.080;11.960;2024-02-26T01:59:01;6.53;;;5.47;;
23362;SDS011;11853;48.080;11.960;2024-02-26T02:01:29;5.55;;;5.05;;
23362;SDS011;11853;48.080;11.960;2024-02-26T02:03:57;5.95;;;5.35;;
23362;SDS011;11853;48.080;11.960;2024-02-26T02:06:27;5.97;;;5.38;;
23362;SDS011;11853;48.080;11.960;2024-02-26T02:08:55;6.32;;;5.65;;
23362;SDS011;11853;48.080;11.960;2024-02-26T02:11:21;6.18;;;5.57;;
23362;SDS011;11853;48.080;11.960;2024-02-26T02:13:47;6.05;;;5.43;;
23362;SDS011;11853;48.080;11.960;2024-02-26T02:16:31;6.40;;;5.78;;
23362;SDS011;11853;48.080;11.960;2024-02-26T02:18:59;6.38;;;5.50;;
23362;SDS011;11853;48.080;11.960;2024-02-26T02:21:27;6.65;;;5.85;;
23362;SDS011;11853;48.080;11.960;2024-02-26T02:23:52;6.40;;;5.80;;
23362;SDS011;11853;48.080;11.960;2024-02-26T02:26:18;6.45;;;5.47;;
23362;SDS011;11853;48.080;11.960;2024-02-26T02:28:44;6.03;;;5.45;;
23362;SDS011;11853;48.080;11.960;2024-02-26T02:31:10;5.55;;;5.05;;
23362;SDS011;11853;48.080;11.960;2024-02-26T02:33:36;6.75;;;5.35;;
23362;SDS011;11853;48.080;11.960;2024-02-26T02:36:02;5.75;;;4.97;;
23362;SDS011;11853;48.080;11.960;2024-02-26T02:38:28;5.95;;;4.95;;
23362;SDS011;11853;48.080;11.960;2024-02-26T02:40:55;5.75;;;4.85;;
23362;SDS011;11853;48.080;11.960;2024-02-26T02:43:20;5.50;;;5.00;;
23362;SDS011;11853;48.080;11.960;2024-02-26T02:45:46;7.25;;;4.88;;
23362;SDS011;11853;48.080;11.960;2024-02-26T02:48:12;6.30;;;5.10;;
23362;SDS011;11853;48.080;11.960;2024-02-26T02:50:37;5.53;;;4.78;;
23362;SDS011;11853;48.080;11.960;2024-02-26T02:53:03;4.90;;;4.50;;
23362;SDS011;11853;48.080;11.960;2024-02-26T02:55:29;9.20;;;7.30;;
23362;SDS011;11853;48.080;11.960;2024-02-26T02:57:55;14.18;;;12.05;;
23362;SDS011;11853;48.080;11.960;2024-02-26T03:00:20;9.13;;;7.15;;
23362;SDS011;11853;48.080;11.960;2024-02-26T03:02:49;6.93;;;5.47;;
23362;SDS011;11853;48.080;11.960;2024-02-26T03:05:15;5.85;;;4.68;;
23362;SDS011;11853;48.080;11.960;2024-02-26T03:07:41;5.30;;;4.80;;
23362;SDS011;11853;48.080;11.960;2024-02-26T03:10:07;5.25;;;4.75;;
23362;SDS011;11853;48.080;11.960;2024-02-26T03:12:33;5.80;;;4.97;;
23362;SDS011;11853;48.080;11.960;2024-02-26T03:14:59;4.95;;;4.43;;
23362;SDS011;11853;48.080;11.960;2024-02-26T03:17:28;5.07;;;4.57;;
23362;SDS011;11853;48.080;11.960;2024-02-26T03:19:54;5.45;;;4.30;;
23362;SDS011;11853;48.080;11.960;2024-02-26T03:22:20;5.45;;;4.80;;
23362;SDS011;11853;48.080;11.960;2024-02-26T03:24:46;5.20;;;4.65;;
23362;SDS011;11853;48.080;11.960;2024-02-26T03:27:11;5.43;;;4.90;;
23362;SDS011;11853;48.080;11.960;2024-02-26T03:29:37;5.05;;;4.55;;
23362;SDS011;11853;48.080;11.960;2024-02-26T03:32:04;5.07;;;4.57;;
23362;SDS011;11853;48.080;11.960;2024-02-26T03:34:30;5.03;;;4.50;;
23362;SDS011;11853;48.080;11.960;2024-02-26T03:36:57;5.13;;;4.63;;
23362;SDS011;11853;48.080;11.960;2024-02-26T03:39:22;4.85;;;4.45;;
23362;SDS011;11853;48.080;11.960;2024-02-26T03:41:48;4.63;;;4.22;;
23362;SDS011;11853;48.080;11.960;2024-02-26T03:44:14;5.20;;;4.70;;
23362;SDS011;11853;48.080;11.960;2024-02-26T03:46:40;5.55;;;4.60;;
23362;SDS011;11853;48.080;11.960;2024-02-26T03:49:08;4.57;;;4.20;;
23362;SDS011;11853;48.080;11.960;2024-02-26T03:51:33;5.63;;;4.35;;
23362;SDS011;11853;48.080;11.960;2024-02-26T03:54:00;5.07;;;4.57;;
23362;SDS011;11853;48.080;11.960;2024-02-26T03:56:27;4.75;;;4.35;;
23362;SDS011;11853;48.080;11.960;2024-02-26T03:58:54;4.93;;;4.45;;
23362;SDS011;11853;48.080;11.960;2024-02-26T04:01:20;6.45;;;4.28;;
23362;SDS011;11853;48.080;11.960;2024-02-26T04:03:45;5.13;;;4.57;;
23362;SDS011;11853;48.080;11.960;2024-02-26T04:06:11;4.82;;;4.32;;
23362;SDS011;11853;48.080;11.960;2024-02-26T04:08:40;5.47;;;4.85;;
23362;SDS011;11853;48.080;11.960;2024-02-26T04:11:06;4.72;;;4.13;;
23362;SDS011;11853;48.080;11.960;2024-02-26T04:13:35;4.97;;;4.43;;
23362;SDS011;11853;48.080;11.960;2024-02-26T04:16:03;5.03;;;4.53;;
23362;SDS011;11853;48.080;11.960;2024-02-26T04:18:32;4.95;;;4.20;;
23362;SDS011;11853;48.080;11.960;2024-02-26T04:20:58;4.80;;;4.30;;
23362;SDS011;11853;48.080;11.960;2024-02-26T04:23:24;4.65;;;4.00;;
23362;SDS011;11853;48.080;11.960;2024-02-26T04:25:50;4.47;;;4.07;;
23362;SDS011;11853;48.080;11.960;2024-02-26T04:28:17;4.50;;;4.10;;
23362;SDS011;11853;48.080;11.960;2024-02-26T04:30:42;4.40;;;3.95;;
23362;SDS011;11853;48.080;11.960;2024-02-26T04:33:08;4.35;;;3.95;;
23362;SDS011;11853;48.080;11.960;2024-02-26T04:35:33;4.38;;;3.97;;
23362;SDS011;11853;48.080;11.960;2024-02-26T04:38:00;4.35;;;3.95;;
23362;SDS011;11853;48.080;11.960;2024-02-26T04:40:26;5.28;;;4.15;;
23362;SDS011;11853;48.080;11.960;2024-02-26T04:42:51;4.30;;;3.90;;
23362;SDS011;11853;48.080;11.960;2024-02-26T04:45:17;4.50;;;4.10;;
23362;SDS011;11853;48.080;11.960;2024-02-26T04:47:43;4.07;;;3.72;;
23362;SDS011;11853;48.080;11.960;2024-02-26T04:50:08;4.55;;;3.92;;
23362;SDS011;11853;48.080;11.960;2024-02-26T04:52:34;4.70;;;4.07;;
23362;SDS011;11853;48.080;11.960;2024-02-26T04:55:01;5.28;;;3.80;;
23362;SDS011;11853;48.080;11.960;2024-02-26T04:57:27;4.40;;;4.00;;
23362;SDS011;11853;48.080;11.960;2024-02-26T04:59:53;4.05;;;3.65;;
23362;SDS011;11853;48.080;11.960;2024-02-26T05:02:19;4.78;;;4.00;;
23362;SDS011;11853;48.080;11.960;2024-02-26T05:04:44;4.82;;;3.42;;
23362;SDS011;11853;48.080;11.960;2024-02-26T05:07:10;3.60;;;3.30;;
23362;SDS011;11853;48.080;11.960;2024-02-26T05:09:35;3.65;;;3.35;;
23362;SDS011;11853;48.080;11.960;2024-02-26T05:12:01;3.15;;;2.95;;
23362;SDS011;11853;48.080;11.960;2024-02-26T05:14:27;41.40;;;34.88;;
23362;SDS011;11853;48.080;11.960;2024-02-26T05:16:52;9.13;;;8.15;;
23362;SDS011;11853;48.080;11.960;2024-02-26T05:19:18;3.53;;;3.22;;
23362;SDS011;11853;48.080;11.960;2024-02-26T05:21:43;3.47;;;3.17;;
23362;SDS011;11853;48.080;11.960;2024-02-26T05:24:09;3.88;;;3.58;;
23362;SDS011;11853;48.080;11.960;2024-02-26T05:26:35;3.00;;;2.70;;
23362;SDS011;11853;48.080;11.960;2024-02-26T05:29:01;4.03;;;3.05;;
23362;SDS011;11853;48.080;11.960;2024-02-26T05:31:27;2.80;;;2.60;;
23362;SDS011;11853;48.080;11.960;2024-02-26T05:33:54;2.72;;;2.53;;
23362;SDS011;11853;48.080;11.960;2024-02-26T05:36:22;2.78;;;2.58;;
23362;SDS011;11853;48.080;11.960;2024-02-26T05:38:49;2.75;;;2.55;;
23362;SDS011;11853;48.080;11.960;2024-02-26T05:41:15;3.00;;;2.80;;
23362;SDS011;11853;48.080;11.960;2024-02-26T05:43:41;3.67;;;3.33;;
23362;SDS011;11853;48.080;11.960;2024-02-26T05:46:07;3.85;;;3.47;;
23362;SDS011;11853;48.080;11.960;2024-02-26T05:48:33;3.25;;;2.78;;
23362;SDS011;11853;48.080;11.960;2024-02-26T05:50:59;3.92;;;3.30;;
23362;SDS011;11853;48.080;11.960;2024-02-26T05:53:24;3.50;;;3.20;;
23362;SDS011;11853;48.080;11.960;2024-02-26T05:55:50;3.97;;;3.10;;
23362;SDS011;11853;48.080;11.960;2024-02-26T05:58:16;3.88;;;2.75;;
23362;SDS011;11853;48.080;11.960;2024-02-26T06:00:41;2.05;;;1.95;;
23362;SDS011;11853;48.080;11.960;2024-02-26T06:03:07;3.08;;;2.70;;
23362;SDS011;11853;48.080;11.960;2024-02-26T06:05:33;2.75;;;2.55;;
23362;SDS011;11853;48.080;11.960;2024-02-26T06:07:58;3.10;;;2.80;;
23362;SDS011;11853;48.080;11.960;2024-02-26T06:10:24;3.10;;;2.80;;
23362;SDS011;11853;48.080;11.960;2024-02-26T06:12:50;3.33;;;3.00;;
23362;SDS011;11853;48.080;11.960;2024-02-26T06:15:15;4.63;;;3.38;;
23362;SDS011;11853;48.080;11.960;2024-02-26T06:17:41;3.50;;;3.20;;
23362;SDS011;11853;48.080;11.960;2024-02-26T06:20:07;3.10;;;2.90;;
23362;SDS011;11853;48.080;11.960;2024-02-26T06:22:36;2.95;;;2.63;;
23362;SDS011;11853;48.080;11.960;2024-02-26T06:25:02;2.85;;;2.58;;
23362;SDS011;11853;48.080;11.960;2024-02-26T06:27:28;3.38;;;3.08;;
23362;SDS011;11853;48.080;11.960;2024-02-26T06:29:53;2.60;;;2.40;;
23362;SDS011;11853;48.080;11.960;2024-02-26T06:32:19;3.00;;;2.80;;
23362;SDS011;11853;48.080;11.960;2024-02-26T06:34:45;3.15;;;2.85;;
23362;SDS011;11853;48.080;11.960;2024-02-26T06:37:10;3.28;;;2.97;;
23362;SDS011;11853;48.080;11.960;2024-02-26T06:39:36;3.10;;;2.80;;
23362;SDS011;11853;48.080;11.960;2024-02-26T06:42:03;3.25;;;3.00;;
23362;SDS011;11853;48.080;11.960;2024-02-26T06:44:28;4.05;;;3.65;;
23362;SDS011;11853;48.080;11.960;2024-02-26T06:46:59;3.70;;;3.40;;
23362;SDS011;11853;48.080;11.960;2024-02-26T06:49:25;3.40;;;3.10;;
23362;SDS011;11853;48.080;11.960;2024-02-26T06:51:51;3.30;;;3.00;;
23362;SDS011;11853;48.080;11.960;2024-02-26T06:54:17;3.50;;;3.20;;
23362;SDS011;11853;48.080;11.960;2024-02-26T06:56:43;4.45;;;3.33;;
23362;SDS011;11853;48.080;11.960;2024-02-26T06:59:08;3.15;;;2.85;;
23362;SDS011;11853;48.080;11.960;2024-02-26T07:01:34;4.68;;;3.00;;
23362;SDS011;11853;48.080;11.960;2024-02-26T07:04:00;3.13;;;2.83;;
23362;SDS011;11853;48.080;11.960;2024-02-26T07:06:26;3.13;;;2.83;;
23362;SDS011;11853;48.080;11.960;2024-02-26T07:08:52;3.08;;;2.78;;
23362;SDS011;11853;48.080;11.960;2024-02-26T07:11:18;2.75;;;2.38;;
23362;SDS011;11853;48.080;11.960;2024-02-26T07:13:45;3.72;;;3.10;;
23362;SDS011;11853;48.080;11.960;2024-02-26T07:16:11;2.88;;;2.60;;
23362;SDS011;11853;48.080;11.960;2024-02-26T07:18:53;2.55;;;2.35;;
23362;SDS011;11853;48.080;11.960;2024-02-26T07:21:39;2.95;;;2.50;;
23362;SDS011;11853;48.080;11.960;2024-02-26T07:24:05;2.35;;;2.15;;
23362;SDS011;11853;48.080;11.960;2024-02-26T07:26:31;4.03;;;3.50;;
23362;SDS011;11853;48.080;11.960;2024-02-26T07:28:57;5.13;;;3.70;;
23362;SDS011;11853;48.080;11.960;2024-02-26T07:31:23;5.20;;;4.18;;
23362;SDS011;11853;48.080;11.960;2024-02-26T07:33:49;5.05;;;3.03;;
23362;SDS011;11853;48.080;11.960;2024-02-26T07:36:14;2.72;;;2.53;;
23362;SDS011;11853;48.080;11.960;2024-02-26T07:38:40;2.50;;;2.30;;
23362;SDS011;11853;48.080;11.960;2024-02-26T07:41:05;2.83;;;2.53;;
23362;SDS011;11853;48.080;11.960;2024-02-26T07:43:31;2.65;;;2.45;;
23362;SDS011;11853;48.080;11.960;2024-02-26T07:45:57;4.03;;;3.20;;
23362;SDS011;11853;48.080;11.960;2024-02-26T07:48:23;10.38;;;7.28;;
23362;SDS011;11853;48.080;11.960;2024-02-26T07:50:48;9.50;;;8.63;;
23362;SDS011;11853;48.080;11.960;2024-02-26T07:53:14;3.85;;;3.10;;
23362;SDS011;11853;48.080;11.960;2024-02-26T07:55:40;4.10;;;2.35;;
23362;SDS011;11853;48.080;11.960;2024-02-26T07:58:05;2.28;;;2.08;;
23362;SDS011;11853;48.080;11.960;2024-02-26T08:00:31;3.00;;;2.00;;
23362;SDS011;11853;48.080;11.960;2024-02-26T08:02:57;2.38;;;2.22;;
23362;SDS011;11853;48.080;11.960;2024-02-26T08:05:22;3.45;;;2.40;;
23362;SDS011;11853;48.080;11.960;2024-02-26T08:07:48;2.38;;;2.17;;
23362;SDS011;11853;48.080;11.960;2024-02-26T08:10:13;4.03;;;1.95;;
23362;SDS011;11853;48.080;11.960;2024-02-26T08:12:39;2.30;;;2.10;;
23362;SDS011;11853;48.080;11.960;2024-02-26T08:15:06;2.53;;;2.22;;
23362;SDS011;11853;48.080;11.960;2024-02-26T08:17:33;2.80;;;1.85;;
23362;SDS011;11853;48.080;11.960;2024-02-26T08:19:59;2.58;;;1.85;;
23362;SDS011;11853;48.080;11.960;2024-02-26T08:22:25;2.03;;;1.80;;
23362;SDS011;11853;48.080;11.960;2024-02-26T08:24:50;2.20;;;2.00;;
23362;SDS011;11853;48.080;11.960;2024-02-26T08:27:16;1.52;;;1.42;;
23362;SDS011;11853;48.080;11.960;2024-02-26T08:29:42;1.58;;;1.48;;
23362;SDS011;11853;48.080;11.960;2024-02-26T08:32:08;1.35;;;1.10;;
23362;SDS011;11853;48.080;11.960;2024-02-26T08:34:33;1.50;;;1.40;;
23362;SDS011;11853;48.080;11.960;2024-02-26T08:36:59;2.10;;;1.90;;
23362;SDS011;11853;48.080;11.960;2024-02-26T08:39:25;2.53;;;1.70;;
23362;SDS011;11853;48.080;11.960;2024-02-26T08:41:51;2.03;;;1.50;;
23362;SDS011;11853;48.080;11.960;2024-02-26T08:44:17;3.55;;;2.50;;
23362;SDS011;11853;48.080;11.960;2024-02-26T08:46:42;2.20;;;2.00;;
23362;SDS011;11853;48.080;11.960;2024-02-26T08:49:08;2.75;;;2.55;;
23362;SDS011;11853;48.080;11.960;2024-02-26T08:51:34;3.88;;;2.15;;
23362;SDS011;11853;48.080;11.960;2024-02-26T08:53:59;1.95;;;1.85;;
23362;SDS011;11853;48.080;11.960;2024-02-26T08:56:25;5.07;;;2.30;;
23362;SDS011;11853;48.080;11.960;2024-02-26T08:58:50;2.72;;;2.20;;
23362;SDS011;11853;48.080;11.960;2024-02-26T09:01:20;2.67;;;2.30;;
23362;SDS011;11853;48.080;11.960;2024-02-26T09:03:46;3.28;;;2.63;;
23362;SDS011;11853;48.080;11.960;2024-02-26T09:06:11;2.92;;;2.40;;
23362;SDS011;11853;48.080;11.960;2024-02-26T09:08:40;3.00;;;2.70;;
23362;SDS011;11853;48.080;11.960;2024-02-26T09:11:06;3.25;;;2.40;;
23362;SDS011;11853;48.080;11.960;2024-02-26T09:13:31;2.55;;;2.17;;
23362;SDS011;11853;48.080;11.960;2024-02-26T09:15:57;2.58;;;2.00;;
23362;SDS011;11853;48.080;11.960;2024-02-26T09:18:24;3.17;;;2.08;;
23362;SDS011;11853;48.080;11.960;2024-02-26T09:20:49;2.85;;;2.10;;
23362;SDS011;11853;48.080;11.960;2024-02-26T09:23:16;3.78;;;2.00;;
23362;SDS011;11853;48.080;11.960;2024-02-26T09:25:41;3.58;;;2.45;;
23362;SDS011;11853;48.080;11.960;2024-02-26T09:28:07;2.53;;;1.95;;
23362;SDS011;11853;48.080;11.960;2024-02-26T09:30:32;1.80;;;1.70;;
23362;SDS011;11853;48.080;11.960;2024-02-26T09:32:58;4.38;;;2.83;;
23362;SDS011;11853;48.080;11.960;2024-02-26T09:35:24;4.03;;;2.88;;
23362;SDS011;11853;48.080;11.960;2024-02-26T09:37:49;2.30;;;1.80;;
23362;SDS011;11853;48.080;11.960;2024-02-26T09:40:15;2.83;;;2.03;;
23362;SDS011;11853;48.080;11.960;2024-02-26T09:42:42;2.50;;;2.30;;
23362;SDS011;11853;48.080;11.960;2024-02-26T09:45:10;3.15;;;2.60;;
23362;SDS011;11853;48.080;11.960;2024-02-26T09:47:42;2.88;;;2.22;;
23362;SDS011;11853;48.080;11.960;2024-02-26T09:50:09;2.63;;;2.22;;
23362;SDS011;11853;48.080;11.960;2024-02-26T09:52:38;2.53;;;1.98;;
23362;SDS011;11853;48.080;11.960;2024-02-26T09:55:07;1.95;;;1.75;;
23362;SDS011;11853;48.080;11.960;2024-02-26T09:57:33;1.92;;;1.65;;
23362;SDS011;11853;48.080;11.960;2024-02-26T10:00:00;3.08;;;1.45;;
23362;SDS011;11853;48.080;11.960;2024-02-26T10:02:30;1.48;;;1.35;;
23362;SDS011;11853;48.080;11.960;2024-02-26T10:04:58;1.90;;;1.80;;
23362;SDS011;11853;48.080;11.960;2024-02-26T10:07:30;2.00;;;1.90;;
23362;SDS011;11853;48.080;11.960;2024-02-26T10:09:56;1.67;;;1.58;;
23362;SDS011;11853;48.080;11.960;2024-02-26T10:12:22;2.20;;;1.92;;
23362;SDS011;11853;48.080;11.960;2024-02-26T10:14:48;2.22;;;1.95;;
23362;SDS011;11853;48.080;11.960;2024-02-26T10:17:14;1.98;;;1.80;;
23362;SDS011;11853;48.080;11.960;2024-02-26T10:19:40;2.75;;;2.33;;
23362;SDS011;11853;48.080;11.960;2024-02-26T10:22:06;3.78;;;3.00;;
23362;SDS011;11853;48.080;11.960;2024-02-26T10:24:31;2.58;;;2.38;;
23362;SDS011;11853;48.080;11.960;2024-02-26T10:26:57;2.40;;;2.20;;
23362;SDS011;11853;48.080;11.960;2024-02-26T10:29:23;3.20;;;2.45;;
23362;SDS011;11853;48.080;11.960;2024-02-26T10:31:53;2.25;;;2.00;;
23362;SDS011;11853;48.080;11.960;2024-02-26T10:34:19;2.42;;;2.20;;
23362;SDS011;11853;48.080;11.960;2024-02-26T10:36:45;1.98;;;1.83;;
23362;SDS011;11853;48.080;11.960;2024-02-26T10:39:14;2.95;;;2.65;;
23362;SDS011;11853;48.080;11.960;2024-02-26T10:41:40;4.22;;;3.83;;
23362;SDS011;11853;48.080;11.960;2024-02-26T10:44:10;2.72;;;2.53;;
23362;SDS011;11853;48.080;11.960;2024-02-26T10:46:38;2.00;;;1.90;;
23362;SDS011;11853;48.080;11.960;2024-02-26T10:49:08;2.08;;;1.90;;
23362;SDS011;11853;48.080;11.960;2024-02-26T10:51:39;4.40;;;2.03;;
23362;SDS011;11853;48.080;11.960;2024-02-26T10:54:08;3.08;;;2.78;;
23362;SDS011;11853;48.080;11.960;2024-02-26T10:56:37;2.95;;;2.20;;
23362;SDS011;11853;48.080;11.960;2024-02-26T10:59:07;2.47;;;2.28;;
23362;SDS011;11853;48.080;11.960;2024-02-26T11:01:34;2.00;;;1.90;;
23362;SDS011;11853;48.080;11.960;2024-02-26T11:04:03;8.40;;;5.03;;
23362;SDS011;11853;48.080;11.960;2024-02-26T11:06:30;3.17;;;2.33;;
23362;SDS011;11853;48.080;11.960;2024-02-26T11:08:59;1.88;;;1.73;;
23362;SDS011;11853;48.080;11.960;2024-02-26T11:11:26;2.05;;;1.50;;
23362;SDS011;11853;48.080;11.960;2024-02-26T11:13:53;1.83;;;1.73;;
23362;SDS011;11853;48.080;11.960;2024-02-26T11:16:22;2.42;;;2.13;;
23362;SDS011;11853;48.080;11.960;2024-02-26T11:18:49;3.58;;;2.33;;
23362;SDS011;11853;48.080;11.960;2024-02-26T11:21:17;2.33;;;1.92;;
23362;SDS011;11853;48.080;11.960;2024-02-26T11:23:55;2.50;;;1.50;;
23362;SDS011;11853;48.080;11.960;2024-02-26T11:26:21;2.03;;;1.48;;
23362;SDS011;11853;48.080;11.960;2024-02-26T11:28:49;1.70;;;1.60;;
23362;SDS011;11853;48.080;11.960;2024-02-26T11:31:16;1.85;;;1.75;;
23362;SDS011;11853;48.080;11.960;2024-02-26T11:33:46;1.95;;;1.48;;
23362;SDS011;11853;48.080;11.960;2024-02-26T11:36:12;2.20;;;1.48;;
23362;SDS011;11853;48.080;11.960;2024-02-26T11:38:39;2.20;;;1.23;;
23362;SDS011;11853;48.080;11.960;2024-02-26T11:41:05;2.47;;;1.33;;
23362;SDS011;11853;48.080;11.960;2024-02-26T11:46:32;1.83;;;1.60;;
23362;SDS011;11853;48.080;11.960;2024-02-26T11:51:52;1.33;;;1.30;;
23362;SDS011;11853;48.080;11.960;2024-02-26T11:57:25;2.35;;;1.70;;
23362;SDS011;11853;48.080;11.960;2024-02-26T11:59:53;1.90;;;1.80;;
23362;SDS011;11853;48.080;11.960;2024-02-26T12:07:47;1.50;;;1.40;;
23362;SDS011;11853;48.080;11.960;2024-02-26T12:10:22;1.55;;;1.45;;
23362;SDS011;11853;48.080;11.960;2024-02-26T12:12:52;1.98;;;1.67;;
23362;SDS011;11853;48.080;11.960;2024-02-26T12:15:19;1.58;;;1.48;;
23362;SDS011;11853;48.080;11.960;2024-02-26T12:17:48;1.00;;;0.90;;
23362;SDS011;11853;48.080;11.960;2024-02-26T12:20:14;0.93;;;0.82;;
23362;SDS011;11853;48.080;11.960;2024-02-26T12:22:46;1.02;;;0.93;;
23362;SDS011;11853;48.080;11.960;2024-02-26T12:25:13;2.28;;;1.17;;
23362;SDS011;11853;48.080;11.960;2024-02-26T12:27:39;1.60;;;1.20;;
23362;SDS011;11853;48.080;11.960;2024-02-26T12:30:05;1.15;;;1.05;;
23362;SDS011;11853;48.080;11.960;2024-02-26T12:32:31;1.70;;;1.00;;
23362;SDS011;11853;48.080;11.960;2024-02-26T12:34:58;3.55;;;3.20;;
23362;SDS011;11853;48.080;11.960;2024-02-26T12:37:25;2.22;;;2.03;;
23362;SDS011;11853;48.080;11.960;2024-02-26T12:39:52;1.40;;;1.30;;
23362;SDS011;11853;48.080;11.960;2024-02-26T12:42:18;5.32;;;3.65;;
23362;SDS011;11853;48.080;11.960;2024-02-26T12:44:47;4.70;;;4.18;;
23362;SDS011;11853;48.080;11.960;2024-02-26T12:47:13;2.80;;;2.60;;
23362;SDS011;11853;48.080;11.960;2024-02-26T12:49:48;2.60;;;2.13;;
23362;SDS011;11853;48.080;11.960;2024-02-26T12:52:14;1.58;;;1.48;;
23362;SDS011;11853;48.080;11.960;2024-02-26T12:54:41;1.50;;;1.40;;
23362;SDS011;11853;48.080;11.960;2024-02-26T12:57:08;1.83;;;1.70;;
23362;SDS011;11853;48.080;11.960;2024-02-26T12:59:34;1.70;;;1.60;;
23362;SDS011;11853;48.080;11.960;2024-02-26T13:02:01;1.58;;;1.48;;
23362;SDS011;11853;48.080;11.960;2024-02-26T13:04:29;1.25;;;1.20;;
23362;SDS011;11853;48.080;11.960;2024-02-26T13:06:55;2.75;;;1.80;;
23362;SDS011;11853;48.080;11.960;2024-02-26T13:09:27;2.22;;;1.77;;
23362;SDS011;11853;48.080;11.960;2024-02-26T13:11:55;3.03;;;2.40;;
23362;SDS011;11853;48.080;11.960;2024-02-26T13:14:21;2.58;;;2.10;;
23362;SDS011;11853;48.080;11.960;2024-02-26T13:16:55;2.83;;;2.47;;
23362;SDS011;11853;48.080;11.960;2024-02-26T13:19:22;3.13;;;1.92;;
23362;SDS011;11853;48.080;11.960;2024-02-26T13:21:48;2.25;;;2.05;;
23362;SDS011;11853;48.080;11.960;2024-02-26T13:24:13;3.85;;;2.00;;
23362;SDS011;11853;48.080;11.960;2024-02-26T13:26:39;3.42;;;2.10;;
23362;SDS011;11853;48.080;11.960;2024-02-26T13:29:05;3.33;;;2.00;;
23362;SDS011;11853;48.080;11.960;2024-02-26T13:31:30;2.58;;;1.70;;
23362;SDS011;11853;48.080;11.960;2024-02-26T13:33:57;1.77;;;1.67;;
23362;SDS011;11853;48.080;11.960;2024-02-26T13:36:23;1.50;;;1.40;;
23362;SDS011;11853;48.080;11.960;2024-02-26T13:38:52;1.60;;;1.33;;
23362;SDS011;11853;48.080;11.960;2024-02-26T13:41:19;2.42;;;1.63;;
23362;SDS011;11853;48.080;11.960;2024-02-26T13:43:46;2.35;;;1.60;;
23362;SDS011;11853;48.080;11.960;2024-02-26T13:46:12;2.03;;;1.83;;
23362;SDS011;11853;48.080;11.960;2024-02-26T13:48:39;1.90;;;1.65;;
23362;SDS011;11853;48.080;11.960;2024-02-26T13:51:05;2.17;;;1.98;;
23362;SDS011;11853;48.080;11.960;2024-02-26T13:53:30;3.10;;;1.88;;
23362;SDS011;11853;48.080;11.960;2024-02-26T13:55:56;2.22;;;1.88;;
23362;SDS011;11853;48.080;11.960;2024-02-26T13:58:23;3.22;;;2.67;;
23362;SDS011;11853;48.080;11.960;2024-02-26T14:00:50;1.70;;;1.60;;
23362;SDS011;11853;48.080;11.960;2024-02-26T14:03:16;1.80;;;1.60;;
23362;SDS011;11853;48.080;11.960;2024-02-26T14:05:41;1.85;;;1.52;;
23362;SDS011;11853;48.080;11.960;2024-02-26T14:08:07;1.58;;;1.48;;
23362;SDS011;11853;48.080;11.960;2024-02-26T14:10:33;2.67;;;1.70;;
23362;SDS011;11853;48.080;11.960;2024-02-26T14:12:59;2.38;;;1.40;;
23362;SDS011;11853;48.080;11.960;2024-02-26T14:15:25;1.95;;;1.58;;
23362;SDS011;11853;48.080;11.960;2024-02-26T14:17:53;2.15;;;1.70;;
23362;SDS011;11853;48.080;11.960;2024-02-26T14:20:24;1.52;;;1.42;;
23362;SDS011;11853;48.080;11.960;2024-02-26T14:22:51;1.63;;;1.48;;
23362;SDS011;11853;48.080;11.960;2024-02-26T14:25:19;2.42;;;1.48;;
23362;SDS011;11853;48.080;11.960;2024-02-26T14:27:46;3.05;;;1.55;;
23362;SDS011;11853;48.080;11.960;2024-02-26T14:30:12;1.35;;;1.20;;
23362;SDS011;11853;48.080;11.960;2024-02-26T14:32:39;3.53;;;1.83;;
23362;SDS011;11853;48.080;11.960;2024-02-26T14:35:07;1.88;;;1.75;;
23362;SDS011;11853;48.080;11.960;2024-02-26T14:37:34;1.77;;;1.52;;
23362;SDS011;11853;48.080;11.960;2024-02-26T14:40:00;1.98;;;1.52;;
23362;SDS011;11853;48.080;11.960;2024-02-26T14:42:28;1.67;;;1.35;;
23362;SDS011;11853;48.080;11.960;2024-02-26T14:44:54;1.70;;;1.20;;